sensor_id;sensor_type;location;lat;lon;timestamp;pressure;altitude;pressure_sealevel;temperature;humidity
73338;BME280;61575;49.908;35.556;2023-01-16T00:00:34;99651.72;;;-3.25;86.89
73338;BME280;61575;49.908;35.556;2023-01-16T00:03:36;99652.56;;;-3.25;87.51
73338;BME280;61575;49.908;35.556;2023-01-16T00:06:38;99647.94;;;-3.20;87.05
73338;BME280;61575;49.908;35.556;2023-01-16T00:09:41;99652.31;;;-3.20;87.04
73338;BME280;61575;49.908;35.556;2023-01-16T00:12:43;99646.16;;;-3.19;87.27
73338;BME280;61575;49.908;35.556;2023-01-16T00:15:50;99641.97;;;-3.23;87.13
73338;BME280;61575;49.908;35.556;2023-01-16T00:18:53;99642.84;;;-3.23;87.30
73338;BME280;61575;49.908;35.556;2023-01-16T00:21:55;99637.75;;;-3.26;87.17
73338;BME280;61575;49.908;35.556;2023-01-16T00:24:57;99638.28;;;-3.19;87.41
73338;BME280;61575;49.908;35.556;2023-01-16T00:27:59;99641.66;;;-3.17;86.99
73338;BME280;61575;49.908;35.556;2023-01-16T00:31:01;99633.94;;;-3.20;87.22
73338;BME280;61575;49.908;35.556;2023-01-16T00:34:03;99637.34;;;-3.18;86.75
73338;BME280;61575;49.908;35.556;2023-01-16T00:37:05;99626.75;;;-3.17;86.98
73338;BME280;61575;49.908;35.556;2023-01-16T00:40:07;99622.44;;;-3.18;87.45
73338;BME280;61575;49.908;35.556;2023-01-16T00:43:09;99622.34;;;-3.16;86.92
73338;BME280;61575;49.908;35.556;2023-01-16T00:46:11;99628.78;;;-3.22;87.12
73338;BME280;61575;49.908;35.556;2023-01-16T00:49:13;99626.91;;;-3.20;87.09
73338;BME280;61575;49.908;35.556;2023-01-16T00:52:15;99623.44;;;-3.20;87.01
73338;BME280;61575;49.908;35.556;2023-01-16T00:55:16;99618.09;;;-3.19;87.47
73338;BME280;61575;49.908;35.556;2023-01-16T00:58:19;99611.06;;;-3.18;87.46
73338;BME280;61575;49.908;35.556;2023-01-16T01:01:21;99614.78;;;-3.22;87.36
73338;BME280;61575;49.908;35.556;2023-01-16T01:04:23;99611.25;;;-3.21;87.66
73338;BME280;61575;49.908;35.556;2023-01-16T01:07:25;99608.94;;;-3.27;87.63
73338;BME280;61575;49.908;35.556;2023-01-16T01:10:27;99604.78;;;-3.31;87.72
73338;BME280;61575;49.908;35.556;2023-01-16T01:13:29;99605.94;;;-3.37;87.64
73338;BME280;61575;49.908;35.556;2023-01-16T01:16:30;99611.19;;;-3.37;88.15
73338;BME280;61575;49.908;35.556;2023-01-16T01:19:33;99606.19;;;-3.42;87.95
73338;BME280;61575;49.908;35.556;2023-01-16T01:22:35;99606.03;;;-3.39;87.90
73338;BME280;61575;49.908;35.556;2023-01-16T01:25:38;99595.53;;;-3.39;88.47
73338;BME280;61575;49.908;35.556;2023-01-16T01:28:40;99596.44;;;-3.40;88.32
73338;BME280;61575;49.908;35.556;2023-01-16T01:31:42;99586.88;;;-3.41;87.84
73338;BME280;61575;49.908;35.556;2023-01-16T01:34:44;99581.47;;;-3.38;88.32
73338;BME280;61575;49.908;35.556;2023-01-16T01:37:46;99578.84;;;-3.38;87.92
73338;BME280;61575;49.908;35.556;2023-01-16T01:40:48;99575.97;;;-3.33;88.77
73338;BME280;61575;49.908;35.556;2023-01-16T01:43:53;99583.69;;;-3.30;88.39
73338;BME280;61575;49.908;35.556;2023-01-16T01:46:55;99581.91;;;-3.29;88.10
73338;BME280;61575;49.908;35.556;2023-01-16T01:49:59;99576.75;;;-3.31;88.19
73338;BME280;61575;49.908;35.556;2023-01-16T01:53:08;99578.13;;;-3.24;88.16
73338;BME280;61575;49.908;35.556;2023-01-16T01:56:26;99577.66;;;-3.32;88.37
73338;BME280;61575;49.908;35.556;2023-01-16T01:59:37;99577.59;;;-3.30;88.56
73338;BME280;61575;49.908;35.556;2023-01-16T02:02:45;99574.13;;;-3.31;88.64
73338;BME280;61575;49.908;35.556;2023-01-16T02:05:49;99579.28;;;-3.29;88.82
73338;BME280;61575;49.908;35.556;2023-01-16T02:08:54;99578.44;;;-3.30;88.82
73338;BME280;61575;49.908;35.556;2023-01-16T02:12:08;99574.88;;;-3.29;88.64
73338;BME280;61575;49.908;35.556;2023-01-16T02:15:10;99570.63;;;-3.31;89.13
73338;BME280;61575;49.908;35.556;2023-01-16T02:18:12;99572.09;;;-3.26;89.24
73338;BME280;61575;49.908;35.556;2023-01-16T02:31:53;99562.53;;;-3.27;89.30
73338;BME280;61575;49.908;35.556;2023-01-16T02:42:16;99564.91;;;-3.22;89.22
73338;BME280;61575;49.908;35.556;2023-01-16T02:49:08;99555.66;;;-3.29;89.79
73338;BME280;61575;49.908;35.556;2023-01-16T02:52:16;99558.97;;;-3.26;89.75
73338;BME280;61575;49.908;35.556;2023-01-16T02:58:26;99552.63;;;-3.22;89.49
73338;BME280;61575;49.908;35.556;2023-01-16T03:01:34;99555.25;;;-3.22;89.52
73338;BME280;61575;49.908;35.556;2023-01-16T03:11:16;99563.19;;;-3.23;89.63
73338;BME280;61575;49.908;35.556;2023-01-16T03:21:11;99555.00;;;-3.17;89.53
73338;BME280;61575;49.908;35.556;2023-01-16T03:24:35;99562.94;;;-3.19;89.43
73338;BME280;61575;49.908;35.556;2023-01-16T03:28:03;99566.44;;;-3.18;89.58
73338;BME280;61575;49.908;35.556;2023-01-16T03:31:25;99565.50;;;-3.17;89.52
73338;BME280;61575;49.908;35.556;2023-01-16T03:34:53;99561.59;;;-3.26;89.44
73338;BME280;61575;49.908;35.556;2023-01-16T03:37:59;99557.94;;;-3.23;89.41
73338;BME280;61575;49.908;35.556;2023-01-16T03:41:04;99555.06;;;-3.19;88.93
73338;BME280;61575;49.908;35.556;2023-01-16T03:44:14;99553.22;;;-3.17;89.56
73338;BME280;61575;49.908;35.556;2023-01-16T03:47:23;99553.91;;;-3.13;89.27
73338;BME280;61575;49.908;35.556;2023-01-16T03:50:27;99555.44;;;-3.09;89.10
73338;BME280;61575;49.908;35.556;2023-01-16T03:53:35;99556.28;;;-3.09;89.11
73338;BME280;61575;49.908;35.556;2023-01-16T03:56:50;99558.31;;;-3.14;88.47
73338;BME280;61575;49.908;35.556;2023-01-16T03:59:53;99555.06;;;-3.19;88.94
73338;BME280;61575;49.908;35.556;2023-01-16T04:03:08;99561.00;;;-3.15;88.85
73338;BME280;61575;49.908;35.556;2023-01-16T04:06:17;99566.25;;;-3.15;89.07
73338;BME280;61575;49.908;35.556;2023-01-16T04:09:26;99563.47;;;-3.12;88.77
73338;BME280;61575;49.908;35.556;2023-01-16T04:12:41;99559.06;;;-3.12;89.13
73338;BME280;61575;49.908;35.556;2023-01-16T04:15:47;99558.75;;;-3.06;89.18
73338;BME280;61575;49.908;35.556;2023-01-16T04:18:53;99561.19;;;-3.02;89.09
73338;BME280;61575;49.908;35.556;2023-01-16T04:21:57;99559.41;;;-3.02;89.05
73338;BME280;61575;49.908;35.556;2023-01-16T04:25:00;99551.69;;;-3.05;88.66
73338;BME280;61575;49.908;35.556;2023-01-16T04:28:03;99546.19;;;-3.16;88.70
73338;BME280;61575;49.908;35.556;2023-01-16T04:31:05;99548.13;;;-3.20;88.83
73338;BME280;61575;49.908;35.556;2023-01-16T04:34:07;99547.13;;;-3.17;89.04
73338;BME280;61575;49.908;35.556;2023-01-16T04:37:13;99544.25;;;-3.13;89.41
73338;BME280;61575;49.908;35.556;2023-01-16T04:40:15;99535.44;;;-3.12;89.08
73338;BME280;61575;49.908;35.556;2023-01-16T04:43:17;99542.38;;;-3.11;89.02
73338;BME280;61575;49.908;35.556;2023-01-16T04:46:19;99542.47;;;-3.12;88.83
73338;BME280;61575;49.908;35.556;2023-01-16T04:49:21;99530.19;;;-3.12;88.83
73338;BME280;61575;49.908;35.556;2023-01-16T04:52:23;99526.63;;;-3.11;89.04
73338;BME280;61575;49.908;35.556;2023-01-16T04:55:25;99532.88;;;-3.13;89.00
73338;BME280;61575;49.908;35.556;2023-01-16T04:58:27;99540.00;;;-3.15;88.78
73338;BME280;61575;49.908;35.556;2023-01-16T05:01:29;99527.47;;;-3.10;89.20
73338;BME280;61575;49.908;35.556;2023-01-16T05:04:36;99540.16;;;-3.18;89.05
73338;BME280;61575;49.908;35.556;2023-01-16T05:07:38;99540.09;;;-3.17;89.07
73338;BME280;61575;49.908;35.556;2023-01-16T05:10:40;99553.03;;;-3.14;89.39
73338;BME280;61575;49.908;35.556;2023-01-16T05:13:42;99550.50;;;-3.15;88.89
73338;BME280;61575;49.908;35.556;2023-01-16T05:16:44;99545.78;;;-3.09;88.98
73338;BME280;61575;49.908;35.556;2023-01-16T05:19:46;99539.25;;;-3.01;89.09
73338;BME280;61575;49.908;35.556;2023-01-16T05:22:48;99535.34;;;-3.10;88.86
73338;BME280;61575;49.908;35.556;2023-01-16T05:25:49;99528.47;;;-3.13;89.32
73338;BME280;61575;49.908;35.556;2023-01-16T05:28:51;99521.19;;;-3.08;89.64
73338;BME280;61575;49.908;35.556;2023-01-16T05:31:53;99527.13;;;-3.04;89.34
73338;BME280;61575;49.908;35.556;2023-01-16T05:34:55;99523.06;;;-3.10;88.95
73338;BME280;61575;49.908;35.556;2023-01-16T05:37:57;99519.50;;;-3.09;89.45
73338;BME280;61575;49.908;35.556;2023-01-16T05:40:59;99517.88;;;-3.11;89.10
73338;BME280;61575;49.908;35.556;2023-01-16T05:44:01;99512.81;;;-3.14;89.06
73338;BME280;61575;49.908;35.556;2023-01-16T05:47:03;99509.34;;;-3.15;89.01
73338;BME280;61575;49.908;35.556;2023-01-16T05:50:05;99517.03;;;-3.12;89.27
73338;BME280;61575;49.908;35.556;2023-01-16T05:53:07;99526.53;;;-3.09;88.99
73338;BME280;61575;49.908;35.556;2023-01-16T05:56:10;99531.69;;;-3.08;89.12
73338;BME280;61575;49.908;35.556;2023-01-16T05:59:12;99531.53;;;-3.04;88.77
73338;BME280;61575;49.908;35.556;2023-01-16T06:02:15;99524.50;;;-3.04;88.91
73338;BME280;61575;49.908;35.556;2023-01-16T06:05:17;99518.56;;;-3.08;88.96
73338;BME280;61575;49.908;35.556;2023-01-16T06:08:19;99524.06;;;-3.12;89.34
73338;BME280;61575;49.908;35.556;2023-01-16T06:11:20;99529.31;;;-3.12;89.20
73338;BME280;61575;49.908;35.556;2023-01-16T06:14:22;99519.66;;;-3.12;89.36
73338;BME280;61575;49.908;35.556;2023-01-16T06:17:25;99521.44;;;-3.12;89.26
73338;BME280;61575;49.908;35.556;2023-01-16T06:20:27;99525.84;;;-3.13;89.55
73338;BME280;61575;49.908;35.556;2023-01-16T06:23:29;99515.94;;;-3.08;89.54
73338;BME280;61575;49.908;35.556;2023-01-16T06:26:32;99519.06;;;-3.01;89.32
73338;BME280;61575;49.908;35.556;2023-01-16T06:29:34;99512.22;;;-3.03;89.60
73338;BME280;61575;49.908;35.556;2023-01-16T06:32:36;99512.31;;;-3.05;89.60
73338;BME280;61575;49.908;35.556;2023-01-16T06:35:38;99507.72;;;-3.01;89.50
73338;BME280;61575;49.908;35.556;2023-01-16T06:38:41;99515.34;;;-2.97;89.71
73338;BME280;61575;49.908;35.556;2023-01-16T06:41:42;99515.69;;;-3.03;89.81
73338;BME280;61575;49.908;35.556;2023-01-16T06:44:44;99509.34;;;-2.99;89.45
73338;BME280;61575;49.908;35.556;2023-01-16T06:47:50;99504.25;;;-3.02;89.51
73338;BME280;61575;49.908;35.556;2023-01-16T06:50:52;99510.00;;;-3.11;89.85
73338;BME280;61575;49.908;35.556;2023-01-16T06:53:55;99515.59;;;-3.01;89.82
73338;BME280;61575;49.908;35.556;2023-01-16T06:56:56;99516.63;;;-3.04;89.95
73338;BME280;61575;49.908;35.556;2023-01-16T06:59:58;99515.09;;;-3.08;89.53
73338;BME280;61575;49.908;35.556;2023-01-16T07:03:01;99508.75;;;-3.04;89.83
73338;BME280;61575;49.908;35.556;2023-01-16T07:06:03;99508.50;;;-2.99;90.18
73338;BME280;61575;49.908;35.556;2023-01-16T07:09:06;99510.84;;;-2.95;90.11
73338;BME280;61575;49.908;35.556;2023-01-16T07:12:08;99522.47;;;-2.99;90.24
73338;BME280;61575;49.908;35.556;2023-01-16T07:15:10;99514.75;;;-3.02;89.89
73338;BME280;61575;49.908;35.556;2023-01-16T07:18:30;99520.19;;;-3.05;89.80
73338;BME280;61575;49.908;35.556;2023-01-16T07:21:51;99514.75;;;-3.02;90.06
73338;BME280;61575;49.908;35.556;2023-01-16T07:25:23;99518.31;;;-3.03;90.01
73338;BME280;61575;49.908;35.556;2023-01-16T07:28:26;99517.31;;;-3.00;89.84
73338;BME280;61575;49.908;35.556;2023-01-16T07:31:31;99523.16;;;-2.95;90.18
73338;BME280;61575;49.908;35.556;2023-01-16T07:34:33;99524.00;;;-2.95;90.58
73338;BME280;61575;49.908;35.556;2023-01-16T07:37:36;99530.94;;;-2.94;90.28
73338;BME280;61575;49.908;35.556;2023-01-16T07:40:40;99530.59;;;-2.88;90.47
73338;BME280;61575;49.908;35.556;2023-01-16T07:43:42;99530.25;;;-2.82;90.13
73338;BME280;61575;49.908;35.556;2023-01-16T07:46:44;99535.25;;;-2.77;90.42
73338;BME280;61575;49.908;35.556;2023-01-16T07:49:46;99528.41;;;-2.80;90.04
73338;BME280;61575;49.908;35.556;2023-01-16T07:52:48;99532.38;;;-2.72;89.93
73338;BME280;61575;49.908;35.556;2023-01-16T07:55:52;99527.03;;;-2.71;89.88
73338;BME280;61575;49.908;35.556;2023-01-16T07:58:54;99530.16;;;-2.64;90.30
73338;BME280;61575;49.908;35.556;2023-01-16T08:01:56;99531.34;;;-2.70;89.76
73338;BME280;61575;49.908;35.556;2023-01-16T08:04:58;99528.63;;;-2.68;90.04
73338;BME280;61575;49.908;35.556;2023-01-16T08:08:00;99527.63;;;-2.66;90.03
73338;BME280;61575;49.908;35.556;2023-01-16T08:11:02;99518.53;;;-2.60;89.94
73338;BME280;61575;49.908;35.556;2023-01-16T08:14:27;99519.47;;;-2.61;89.79
73338;BME280;61575;49.908;35.556;2023-01-16T08:28:14;99518.06;;;-2.98;92.05
73338;BME280;61575;49.908;35.556;2023-01-16T08:31:16;99514.41;;;-2.80;91.57
73338;BME280;61575;49.908;35.556;2023-01-16T08:34:19;99508.81;;;-2.74;90.96
73338;BME280;61575;49.908;35.556;2023-01-16T08:37:21;99502.00;;;-2.62;90.29
73338;BME280;61575;49.908;35.556;2023-01-16T08:40:23;99500.72;;;-2.55;90.50
73338;BME280;61575;49.908;35.556;2023-01-16T08:43:26;99498.19;;;-2.57;90.64
73338;BME280;61575;49.908;35.556;2023-01-16T08:46:58;99490.78;;;-2.50;90.50
73338;BME280;61575;49.908;35.556;2023-01-16T08:50:19;99488.75;;;-2.45;89.95
73338;BME280;61575;49.908;35.556;2023-01-16T08:53:40;99494.28;;;-2.50;89.99
73338;BME280;61575;49.908;35.556;2023-01-16T08:56:43;99486.88;;;-2.43;90.33
73338;BME280;61575;49.908;35.556;2023-01-16T08:59:45;99478.03;;;-2.42;90.17
73338;BME280;61575;49.908;35.556;2023-01-16T09:02:47;99485.44;;;-2.49;90.19
73338;BME280;61575;49.908;35.556;2023-01-16T09:05:49;99470.06;;;-2.41;90.45
73338;BME280;61575;49.908;35.556;2023-01-16T09:08:51;99472.25;;;-2.33;90.16
73338;BME280;61575;49.908;35.556;2023-01-16T09:11:54;99472.81;;;-2.28;90.03
73338;BME280;61575;49.908;35.556;2023-01-16T09:15:15;99459.22;;;-2.20;90.20
73338;BME280;61575;49.908;35.556;2023-01-16T09:18:17;99462.44;;;-2.15;90.18
73338;BME280;61575;49.908;35.556;2023-01-16T09:21:19;99449.84;;;-2.10;89.94
73338;BME280;61575;49.908;35.556;2023-01-16T09:24:21;99459.53;;;-2.11;89.42
73338;BME280;61575;49.908;35.556;2023-01-16T09:27:23;99450.88;;;-2.13;89.56
73338;BME280;61575;49.908;35.556;2023-01-16T09:30:27;99453.41;;;-2.11;89.84
73338;BME280;61575;49.908;35.556;2023-01-16T09:33:29;99451.25;;;-2.04;89.66
73338;BME280;61575;49.908;35.556;2023-01-16T09:36:31;99444.13;;;-2.02;89.66
73338;BME280;61575;49.908;35.556;2023-01-16T09:39:33;99450.53;;;-1.92;89.45
73338;BME280;61575;49.908;35.556;2023-01-16T09:46:41;99431.72;;;-1.86;89.66
73338;BME280;61575;49.908;35.556;2023-01-16T09:49:53;99433.88;;;-1.79;89.28
73338;BME280;61575;49.908;35.556;2023-01-16T09:52:59;99438.31;;;-1.79;89.52
73338;BME280;61575;49.908;35.556;2023-01-16T09:56:24;99425.63;;;-1.87;89.22
73338;BME280;61575;49.908;35.556;2023-01-16T13:12:14;99381.41;;;-1.26;96.59
73338;BME280;61575;49.908;35.556;2023-01-16T13:15:39;99390.13;;;-1.12;95.66
73338;BME280;61575;49.908;35.556;2023-01-16T13:22:04;99393.91;;;-1.03;94.49
73338;BME280;61575;49.908;35.556;2023-01-16T13:25:56;99399.72;;;-0.98;94.16
73338;BME280;61575;49.908;35.556;2023-01-16T13:31:52;99401.97;;;-0.92;93.27
73338;BME280;61575;49.908;35.556;2023-01-16T13:35:06;99404.69;;;-0.93;93.02
73338;BME280;61575;49.908;35.556;2023-01-16T13:41:43;99407.03;;;-0.89;92.81
73338;BME280;61575;49.908;35.556;2023-01-16T13:44:56;99403.56;;;-0.89;92.39
73338;BME280;61575;49.908;35.556;2023-01-16T13:48:27;99406.00;;;-0.86;92.07
73338;BME280;61575;49.908;35.556;2023-01-16T13:51:30;99409.78;;;-0.90;92.32
73338;BME280;61575;49.908;35.556;2023-01-16T13:54:37;99407.78;;;-0.87;92.32
73338;BME280;61575;49.908;35.556;2023-01-16T13:57:39;99401.25;;;-0.81;91.84
73338;BME280;61575;49.908;35.556;2023-01-16T14:00:43;99394.41;;;-0.84;91.93
73338;BME280;61575;49.908;35.556;2023-01-16T14:07:46;99381.81;;;-0.93;91.81
73338;BME280;61575;49.908;35.556;2023-01-16T14:18:19;99390.72;;;-1.08;91.85
73338;BME280;61575;49.908;35.556;2023-01-16T14:21:27;99390.13;;;-0.99;91.91
73338;BME280;61575;49.908;35.556;2023-01-16T14:24:54;99379.69;;;-1.00;91.85
73338;BME280;61575;49.908;35.556;2023-01-16T14:27:58;99379.69;;;-1.00;91.93
73338;BME280;61575;49.908;35.556;2023-01-16T14:31:00;99382.44;;;-1.02;92.12
73338;BME280;61575;49.908;35.556;2023-01-16T14:34:03;99376.41;;;-1.04;91.99
73338;BME280;61575;49.908;35.556;2023-01-16T14:37:12;99379.16;;;-1.05;92.08
73338;BME280;61575;49.908;35.556;2023-01-16T14:40:25;99385.56;;;-1.10;92.23
73338;BME280;61575;49.908;35.556;2023-01-16T14:44:22;99381.78;;;-1.05;92.10
73338;BME280;61575;49.908;35.556;2023-01-16T14:47:51;99375.88;;;-1.09;92.44
73338;BME280;61575;49.908;35.556;2023-01-16T14:51:28;99389.88;;;-1.08;92.34
73338;BME280;61575;49.908;35.556;2023-01-16T14:54:49;99383.47;;;-1.04;92.19
73338;BME280;61575;49.908;35.556;2023-01-16T14:58:16;99391.19;;;-1.01;92.12
73338;BME280;61575;49.908;35.556;2023-01-16T15:01:49;99400.44;;;-1.08;92.52
73338;BME280;61575;49.908;35.556;2023-01-16T15:05:15;99402.78;;;-1.04;92.47
73338;BME280;61575;49.908;35.556;2023-01-16T15:11:29;99405.59;;;-1.07;92.80
73338;BME280;61575;49.908;35.556;2023-01-16T15:14:35;99397.69;;;-1.07;92.86
73338;BME280;61575;49.908;35.556;2023-01-16T15:17:39;99396.56;;;-1.03;92.75
73338;BME280;61575;49.908;35.556;2023-01-16T15:21:00;99396.00;;;-1.08;92.83
73338;BME280;61575;49.908;35.556;2023-01-16T15:24:42;99392.53;;;-1.08;92.73
73338;BME280;61575;49.908;35.556;2023-01-16T15:27:53;99396.44;;;-1.14;92.90
73338;BME280;61575;49.908;35.556;2023-01-16T15:31:00;99390.97;;;-1.11;92.85
73338;BME280;61575;49.908;35.556;2023-01-16T15:34:18;99395.81;;;-1.05;92.83
73338;BME280;61575;49.908;35.556;2023-01-16T15:37:23;99387.81;;;-1.03;92.76
73338;BME280;61575;49.908;35.556;2023-01-16T15:40:28;99383.69;;;-1.07;92.62
73338;BME280;61575;49.908;35.556;2023-01-16T15:43:31;99381.03;;;-1.07;92.74
73338;BME280;61575;49.908;35.556;2023-01-16T15:47:06;99375.03;;;-1.10;92.57
73338;BME280;61575;49.908;35.556;2023-01-16T15:53:45;99364.38;;;-1.08;92.74
73338;BME280;61575;49.908;35.556;2023-01-16T15:56:50;99370.09;;;-1.14;92.83
73338;BME280;61575;49.908;35.556;2023-01-16T15:59:58;99373.22;;;-1.09;92.64
73338;BME280;61575;49.908;35.556;2023-01-16T18:15:44;99373.47;;;-0.99;100.00
73338;BME280;61575;49.908;35.556;2023-01-16T18:19:04;99382.38;;;-0.88;100.00
73338;BME280;61575;49.908;35.556;2023-01-16T18:22:09;99384.06;;;-0.87;100.00
73338;BME280;61575;49.908;35.556;2023-01-16T18:25:11;99377.53;;;-0.81;100.00
73338;BME280;61575;49.908;35.556;2023-01-16T18:28:13;99363.50;;;-0.82;99.16
73338;BME280;61575;49.908;35.556;2023-01-16T18:31:15;99372.50;;;-0.71;98.86
73338;BME280;61575;49.908;35.556;2023-01-16T18:34:17;99362.69;;;-0.69;98.68
73338;BME280;61575;49.908;35.556;2023-01-16T18:37:24;99365.22;;;-0.68;98.32
73338;BME280;61575;49.908;35.556;2023-01-16T18:40:27;99365.31;;;-0.69;98.14
73338;BME280;61575;49.908;35.556;2023-01-16T18:43:47;99372.09;;;-0.65;98.14
73338;BME280;61575;49.908;35.556;2023-01-16T18:47:13;99367.00;;;-0.68;97.79
73338;BME280;61575;49.908;35.556;2023-01-16T18:50:37;99368.72;;;-0.67;97.80
73338;BME280;61575;49.908;35.556;2023-01-16T18:53:58;99373.03;;;-0.66;97.52
73338;BME280;61575;49.908;35.556;2023-01-16T18:57:22;99367.44;;;-0.62;97.40
73338;BME280;61575;49.908;35.556;2023-01-16T19:00:45;99373.38;;;-0.58;97.45
73338;BME280;61575;49.908;35.556;2023-01-16T19:04:05;99368.84;;;-0.56;96.88
73338;BME280;61575;49.908;35.556;2023-01-16T19:07:12;99360.91;;;-0.56;96.83
73338;BME280;61575;49.908;35.556;2023-01-16T19:10:20;99354.91;;;-0.58;96.72
73338;BME280;61575;49.908;35.556;2023-01-16T19:13:23;99356.91;;;-0.62;96.79
73338;BME280;61575;49.908;35.556;2023-01-16T19:16:38;99355.84;;;-0.59;96.63
73338;BME280;61575;49.908;35.556;2023-01-16T19:19:46;99362.06;;;-0.60;96.44
73338;BME280;61575;49.908;35.556;2023-01-16T19:22:48;99372.53;;;-0.59;96.46
73338;BME280;61575;49.908;35.556;2023-01-16T19:25:50;99368.72;;;-0.55;96.54
73338;BME280;61575;49.908;35.556;2023-01-16T19:28:52;99371.47;;;-0.56;96.37
73338;BME280;61575;49.908;35.556;2023-01-16T19:31:55;99368.72;;;-0.55;96.14
73338;BME280;61575;49.908;35.556;2023-01-16T19:34:58;99358.91;;;-0.53;96.03
73338;BME280;61575;49.908;35.556;2023-01-16T19:37:59;99368.72;;;-0.55;96.01
73338;BME280;61575;49.908;35.556;2023-01-16T19:41:02;99361.75;;;-0.56;96.14
73338;BME280;61575;49.908;35.556;2023-01-16T19:44:04;99366.09;;;-0.55;96.00
73338;BME280;61575;49.908;35.556;2023-01-16T19:47:24;99353.22;;;-0.59;95.81
73338;BME280;61575;49.908;35.556;2023-01-16T19:50:29;99346.56;;;-0.65;96.00
73338;BME280;61575;49.908;35.556;2023-01-16T19:53:33;99351.94;;;-0.66;96.12
73338;BME280;61575;49.908;35.556;2023-01-16T19:56:35;99357.94;;;-0.64;96.09
73338;BME280;61575;49.908;35.556;2023-01-16T19:59:37;99355.41;;;-0.66;96.07
73338;BME280;61575;49.908;35.556;2023-01-16T20:02:39;99351.53;;;-0.60;95.96
73338;BME280;61575;49.908;35.556;2023-01-16T20:05:41;99354.16;;;-0.60;95.66
73338;BME280;61575;49.908;35.556;2023-01-16T20:08:43;99361.13;;;-0.59;95.71
73338;BME280;61575;49.908;35.556;2023-01-16T20:11:51;99355.66;;;-0.56;95.66
73338;BME280;61575;49.908;35.556;2023-01-16T20:15:12;99359.75;;;-0.52;95.45
73338;BME280;61575;49.908;35.556;2023-01-16T20:18:19;99353.00;;;-0.56;95.30
73338;BME280;61575;49.908;35.556;2023-01-16T20:21:21;99354.06;;;-0.59;95.41
73338;BME280;61575;49.908;35.556;2023-01-16T20:24:23;99346.78;;;-0.55;95.37
73338;BME280;61575;49.908;35.556;2023-01-16T20:27:25;99347.72;;;-0.56;95.40
73338;BME280;61575;49.908;35.556;2023-01-16T20:30:27;99347.84;;;-0.58;95.40
73338;BME280;61575;49.908;35.556;2023-01-16T20:33:48;99345.00;;;-0.55;95.40
73338;BME280;61575;49.908;35.556;2023-01-16T20:36:51;99334.22;;;-0.52;95.43
73338;BME280;61575;49.908;35.556;2023-01-16T20:39:54;99346.56;;;-0.52;95.34
73338;BME280;61575;49.908;35.556;2023-01-16T20:42:56;99344.88;;;-0.53;95.39
73338;BME280;61575;49.908;35.556;2023-01-16T20:46:16;99337.59;;;-0.50;95.39
73338;BME280;61575;49.908;35.556;2023-01-16T20:49:18;99341.94;;;-0.49;95.17
73338;BME280;61575;49.908;35.556;2023-01-16T20:52:22;99343.22;;;-0.41;95.14
73338;BME280;61575;49.908;35.556;2023-01-16T20:55:25;99348.78;;;-0.46;95.16
73338;BME280;61575;49.908;35.556;2023-01-16T20:58:41;99357.25;;;-0.41;94.88
73338;BME280;61575;49.908;35.556;2023-01-16T21:01:43;99353.22;;;-0.34;94.88
73338;BME280;61575;49.908;35.556;2023-01-16T21:04:47;99349.97;;;-0.37;94.77
73338;BME280;61575;49.908;35.556;2023-01-16T21:07:52;99354.06;;;-0.33;94.70
73338;BME280;61575;49.908;35.556;2023-01-16T21:10:54;99356.94;;;-0.36;94.90
73338;BME280;61575;49.908;35.556;2023-01-16T21:13:56;99355.66;;;-0.31;94.81
73338;BME280;61575;49.908;35.556;2023-01-16T21:17:14;99342.38;;;-0.29;94.64
73338;BME280;61575;49.908;35.556;2023-01-16T21:20:35;99347.63;;;-0.29;94.69
73338;BME280;61575;49.908;35.556;2023-01-16T21:24:17;99344.78;;;-0.26;94.50
73338;BME280;61575;49.908;35.556;2023-01-16T21:27:21;99338.47;;;-0.24;94.30
73338;BME280;61575;49.908;35.556;2023-01-16T21:30:29;99340.25;;;-0.24;94.35
73338;BME280;61575;49.908;35.556;2023-01-16T21:33:31;99334.75;;;-0.21;94.22
73338;BME280;61575;49.908;35.556;2023-01-16T21:36:33;99350.81;;;-0.24;94.15
73338;BME280;61575;49.908;35.556;2023-01-16T21:39:35;99351.34;;;-0.19;94.18
73338;BME280;61575;49.908;35.556;2023-01-16T21:42:37;99347.00;;;-0.20;94.08
73338;BME280;61575;49.908;35.556;2023-01-16T21:45:57;99341.41;;;-0.16;94.03
73338;BME280;61575;49.908;35.556;2023-01-16T21:49:18;99348.59;;;-0.18;93.81
73338;BME280;61575;49.908;35.556;2023-01-16T21:52:20;99348.59;;;-0.18;93.92
73338;BME280;61575;49.908;35.556;2023-01-16T21:55:22;99347.22;;;-0.23;94.09
73338;BME280;61575;49.908;35.556;2023-01-16T21:58:31;99340.56;;;-0.16;94.04
73338;BME280;61575;49.908;35.556;2023-01-16T22:01:33;99351.22;;;-0.18;94.05
73338;BME280;61575;49.908;35.556;2023-01-16T22:04:36;99339.28;;;-0.10;93.87
73338;BME280;61575;49.908;35.556;2023-01-16T22:07:39;99338.66;;;-0.14;93.90
73338;BME280;61575;49.908;35.556;2023-01-16T22:10:42;99334.53;;;-0.05;93.49
73338;BME280;61575;49.908;35.556;2023-01-16T22:14:04;99347.84;;;-0.07;93.60
73338;BME280;61575;49.908;35.556;2023-01-16T22:17:25;99335.28;;;-0.03;93.61
73338;BME280;61575;49.908;35.556;2023-01-16T22:20:44;99342.34;;;-0.04;93.69
73338;BME280;61575;49.908;35.556;2023-01-16T22:24:06;99330.50;;;0.02;93.65
73338;BME280;61575;49.908;35.556;2023-01-16T22:27:08;99334.94;;;0.01;93.97
73338;BME280;61575;49.908;35.556;2023-01-16T22:30:11;99330.28;;;0.05;94.07
73338;BME280;61575;49.908;35.556;2023-01-16T22:33:13;99338.00;;;0.08;94.02
73338;BME280;61575;49.908;35.556;2023-01-16T22:36:15;99328.19;;;0.10;93.87
73338;BME280;61575;49.908;35.556;2023-01-16T22:39:17;99325.53;;;0.10;93.82
73338;BME280;61575;49.908;35.556;2023-01-16T22:42:21;99314.88;;;0.11;94.21
73338;BME280;61575;49.908;35.556;2023-01-16T22:45:23;99316.56;;;0.12;93.95
73338;BME280;61575;49.908;35.556;2023-01-16T22:48:43;99314.88;;;0.11;94.18
73338;BME280;61575;49.908;35.556;2023-01-16T22:51:46;99307.78;;;0.12;94.04
73338;BME280;61575;49.908;35.556;2023-01-16T22:54:48;99305.16;;;0.12;93.97
73338;BME280;61575;49.908;35.556;2023-01-16T22:57:51;99294.69;;;0.10;93.93
73338;BME280;61575;49.908;35.556;2023-01-16T23:00:53;99299.47;;;0.05;93.94
73338;BME280;61575;49.908;35.556;2023-01-16T23:03:56;99297.34;;;0.10;93.91